Time;durP1;ratioP1;P1;durP2;ratioP2;P2;SDS_P1;SDS_P2;PMS_P1;PMS_P2;Temp;Humidity;BMP_temperature;BMP_pressure;BME280_temperature;BME280_humidity;BME280_pressure;Samples;Min_cycle;Max_cycle;Signal;HPM_P1;HPM_P2
2022/01/28 00:00:47;;;;;;;9.25;0.93;;;;;;;-145.18;100.00;46670.16;4934933;29;20332;-74
2022/01/28 00:03:13;;;;;;;17.43;3.57;;;;;;;-145.18;100.00;46670.16;4953042;29;20031;-74
2022/01/28 00:05:38;;;;;;;15.00;2.20;;;;;;;-145.18;100.00;46668.22;4953622;29;20273;-74
2022/01/28 00:08:05;;;;;;;18.80;2.13;;;;;;;-145.18;100.00;46677.97;4952736;29;20074;-74
2022/01/28 00:10:32;;;;;;;26.53;2.63;;;;;;;-145.18;100.00;46666.25;4953271;29;20035;-74
2022/01/28 00:15:34;;;;;;;18.07;1.47;;;;;;;-145.18;100.00;46674.06;4953331;29;20266;-74
2022/01/28 00:39:43;;;;;;;17.50;1.63;;;;;;;-145.18;100.00;46699.47;4953305;29;20795;-74
2022/01/28 00:42:09;;;;;;;18.63;1.67;;;;;;;-145.18;100.00;46699.47;4952539;29;20365;-74
2022/01/28 00:44:34;;;;;;;13.03;1.63;;;;;;;-145.18;100.00;46683.84;4953177;29;20043;-74
2022/01/28 00:47:00;;;;;;;10.17;1.80;;;;;;;-145.18;100.00;46695.56;4952499;29;20039;-74
2022/01/28 00:49:26;;;;;;;13.17;1.13;;;;;;;-145.18;100.00;46699.47;4952700;29;20035;-74
2022/01/28 00:51:52;;;;;;;14.33;1.40;;;;;;;-145.18;100.00;46699.47;4953023;29;20101;-71
2022/01/28 00:54:18;;;;;;;16.40;1.70;;;;;;;-145.18;100.00;46693.59;4952439;29;20274;-72
2022/01/28 00:56:44;;;;;;;11.43;2.07;;;;;;;-145.18;100.00;46699.47;4952187;29;20134;-71
2022/01/28 00:59:09;;;;;;;19.27;2.23;;;;;;;-145.18;100.00;46693.59;4952523;29;20448;-74
2022/01/28 01:01:35;;;;;;;17.47;2.10;;;;;;;-145.18;100.00;46701.41;4952179;29;20337;-74
2022/01/28 01:04:01;;;;;;;17.60;1.73;;;;;;;-145.18;100.00;46681.88;4952419;29;20511;-74
2022/01/28 01:06:27;;;;;;;13.37;1.87;;;;;;;-145.18;100.00;46685.78;4952157;29;20051;-73
2022/01/28 01:08:53;;;;;;;14.07;2.57;;;;;;;-145.18;100.00;46679.94;4953092;29;20059;-74
2022/01/28 01:11:21;;;;;;;14.27;2.40;;;;;;;-145.18;100.00;46683.84;4951021;28;20312;-74
2022/01/28 01:13:48;;;;;;;13.73;1.60;;;;;;;-145.18;100.00;46677.97;4935742;29;20062;-74
2022/01/28 01:16:17;;;;;;;13.23;1.60;;;;;;;-145.18;100.00;46689.69;4951687;29;20281;-74
2022/01/28 01:19:03;;;;;;;8.00;1.17;;;;;;;-145.18;100.00;46681.88;4952056;29;20262;-74
2022/01/28 01:21:29;;;;;;;5.28;1.08;;;;;;;-145.18;100.00;46689.69;4951774;29;20270;-74
2022/01/28 01:23:57;;;;;;;13.10;1.67;;;;;;;-145.18;100.00;46687.75;4952149;29;20502;-74
2022/01/28 01:26:35;;;;;;;9.73;1.90;;;;;;;-145.18;100.00;46681.88;4951643;29;20348;-74
2022/01/28 01:29:01;;;;;;;18.70;2.07;;;;;;;-145.18;100.00;46672.13;4952347;29;20270;-72
2022/01/28 01:31:27;;;;;;;12.77;1.40;;;;;;;-145.18;100.00;46687.75;4951659;29;20352;-72
2022/01/28 01:34:08;;;;;;;11.93;1.73;;;;;;;-145.18;100.00;46670.16;4951876;29;20352;-71
2022/01/28 01:36:34;;;;;;;21.20;1.70;;;;;;;-145.18;100.00;46679.94;4951758;29;20108;-74
2022/01/28 01:38:59;;;;;;;12.13;1.57;;;;;;;-145.18;100.00;46664.31;4951654;29;20309;-75
2022/01/28 01:41:36;;;;;;;16.60;1.73;;;;;;;-145.18;100.00;46670.16;4951352;29;20497;-72
2022/01/28 01:52:03;;;;;;;11.20;1.40;;;;;;;-145.18;100.00;46670.16;4951905;29;20066;-74
2022/01/28 01:54:40;;;;;;;9.80;1.53;;;;;;;-145.18;100.00;46668.22;4951827;29;20320;-75
2022/01/28 01:57:08;;;;;;;14.23;1.93;;;;;;;-145.18;100.00;46668.22;4951523;29;20265;-75
2022/01/28 01:59:34;;;;;;;17.57;3.00;;;;;;;-145.18;100.00;46676.03;4951870;29;20285;-75
2022/01/28 02:02:00;;;;;;;18.63;1.70;;;;;;;-145.18;100.00;46689.69;4951302;29;20273;-72
2022/01/28 02:04:25;;;;;;;9.03;1.77;;;;;;;-145.18;100.00;46674.06;4951356;29;20289;-74
2022/01/28 02:06:52;;;;;;;6.77;1.20;;;;;;;-145.18;100.00;46672.13;4951106;29;20054;-72
2022/01/28 02:09:17;;;;;;;9.97;1.47;;;;;;;-145.18;100.00;46676.03;4951369;29;20054;-72
2022/01/28 02:11:43;;;;;;;17.77;1.50;;;;;;;-145.18;100.00;46664.31;4951603;29;20265;-72
2022/01/28 02:14:09;;;;;;;15.77;1.20;;;;;;;-145.18;100.00;46664.31;4950977;29;20500;-74
2022/01/28 02:16:34;;;;;;;19.33;1.93;;;;;;;-145.18;100.00;46662.34;4950635;29;20075;-74
2022/01/28 02:19:01;;;;;;;7.37;1.07;;;;;;;-145.18;100.00;46660.41;4951197;29;20034;-74
2022/01/28 02:21:26;;;;;;;11.07;1.50;;;;;;;-145.18;100.00;46660.41;4933318;29;20055;-74
2022/01/28 02:23:58;;;;;;;11.67;1.60;;;;;;;-145.18;100.00;46646.72;4948845;28;20255;-74
2022/01/28 02:26:24;;;;;;;11.80;1.33;;;;;;;-145.18;100.00;46650.63;4950114;29;20802;-72
2022/01/28 02:28:54;;;;;;;6.20;0.90;;;;;;;-145.18;100.00;46650.63;4950701;29;20268;-73
2022/01/28 02:31:23;;;;;;;15.33;1.67;;;;;;;-145.18;100.00;46654.53;4950181;29;20564;-74
2022/01/28 02:33:51;;;;;;;18.10;2.00;;;;;;;-145.18;100.00;46652.59;4951666;29;20274;-74
2022/01/28 02:36:16;;;;;;;12.97;1.63;;;;;;;-145.18;100.00;46644.78;4950577;29;20301;-74
2022/01/28 02:38:42;;;;;;;18.83;1.87;;;;;;;-145.18;100.00;46644.78;4950653;29;20269;-74
2022/01/28 02:41:07;;;;;;;3.70;0.83;;;;;;;-145.18;100.00;46638.91;4950660;29;20408;-74
2022/01/28 02:46:06;;;;;;;14.73;1.90;;;;;;;-145.18;100.00;46635.00;4950768;29;20043;-71
2022/01/28 02:48:34;;;;;;;20.73;2.07;;;;;;;-145.18;100.00;46631.09;4950437;29;20496;-72
2022/01/28 02:51:13;;;;;;;18.80;1.70;;;;;;;-145.18;100.00;46635.00;4950435;29;20289;-71
2022/01/28 02:53:52;;;;;;;14.63;1.37;;;;;;;-145.18;100.00;46660.41;4950253;29;20285;-74
2022/01/28 02:56:22;;;;;;;17.07;1.90;;;;;;;-145.18;100.00;46635.00;4950238;29;20280;-74
2022/01/28 02:58:48;;;;;;;13.40;1.50;;;;;;;-145.18;100.00;46635.00;4950631;29;20366;-74
2022/01/28 03:03:47;;;;;;;9.03;1.20;;;;;;;-145.18;100.00;46638.91;4961863;23;20275;-72
2022/01/28 03:06:15;;;;;;;10.43;1.67;;;;;;;-145.18;100.00;46652.59;4941691;29;20296;-72
2022/01/28 03:08:45;;;;;;;14.37;1.97;;;;;;;-145.18;100.00;46660.41;4948563;29;20327;-73
2022/01/28 03:17:15;;;;;;;9.27;1.53;;;;;;;-145.18;100.00;46674.06;4919189;29;20277;-73
2022/01/28 03:19:50;;;;;;;12.27;2.80;;;;;;;-145.18;100.00;46664.31;4949514;29;20258;-73
2022/01/28 03:22:15;;;;;;;14.67;1.60;;;;;;;-145.18;100.00;46672.13;4949203;29;20348;-72
2022/01/28 03:24:41;;;;;;;9.50;1.60;;;;;;;-145.18;100.00;46666.25;4949128;29;20762;-72
2022/01/28 03:27:14;;;;;;;7.77;0.90;;;;;;;-145.18;100.00;46672.13;4948651;29;20431;-72
2022/01/28 03:29:39;;;;;;;13.30;1.37;;;;;;;-145.18;100.00;46658.44;4949513;29;20368;-72
2022/01/28 03:32:05;;;;;;;10.07;1.83;;;;;;;-145.18;100.00;46668.22;4931699;29;20783;-72
2022/01/28 03:34:30;;;;;;;10.73;1.30;;;;;;;-145.18;100.00;46652.59;4949031;29;20046;-72
2022/01/28 03:36:57;;;;;;;9.47;1.20;;;;;;;-145.18;100.00;46644.78;4948804;29;20070;-72
2022/01/28 03:39:22;;;;;;;9.33;1.07;;;;;;;-145.18;100.00;46656.50;4949803;29;20050;-72
2022/01/28 03:41:47;;;;;;;9.43;1.30;;;;;;;-145.18;100.00;46644.78;4948627;29;20746;-72
2022/01/28 03:44:13;;;;;;;12.87;1.43;;;;;;;-145.18;100.00;46652.59;4932142;29;20032;-72
2022/01/28 03:46:39;;;;;;;10.77;1.27;;;;;;;-145.18;100.00;46635.00;4948764;29;20126;-72
2022/01/28 03:49:04;;;;;;;8.97;1.20;;;;;;;-145.18;100.00;46642.81;4948896;29;20035;-72
2022/01/28 03:51:29;;;;;;;10.80;1.10;;;;;;;-145.18;100.00;46636.94;4949222;29;20067;-72
2022/01/28 03:53:56;;;;;;;14.27;1.30;;;;;;;-145.18;100.00;46636.94;4948933;29;20134;-73
2022/01/28 03:56:22;;;;;;;9.57;1.10;;;;;;;-145.18;100.00;46633.06;4948852;29;20496;-72
2022/01/28 03:58:47;;;;;;;16.87;1.37;;;;;;;-145.18;100.00;46633.06;4948466;29;20266;-72
2022/01/28 04:01:17;;;;;;;7.13;1.40;;;;;;;-145.18;100.00;46635.00;4949133;29;20451;-72
2022/01/28 04:04:18;;;;;;;8.90;1.37;;;;;;;-145.18;100.00;46660.41;4948032;29;20043;-73
2022/01/28 04:11:27;;;;;;;16.13;1.53;;;;;;;-145.18;100.00;46660.41;4949030;29;20639;-73
2022/01/28 04:12:09;;;;;;;14.83;1.60;;;;;;;-145.18;100.00;46656.50;4948504;29;20292;-73
2022/01/28 04:17:33;;;;;;;12.13;2.30;;;;;;;-145.18;100.00;46654.53;4915254;29;20047;-72
2022/01/28 04:19:58;;;;;;;8.90;1.60;;;;;;;-145.18;100.00;46642.81;4948890;29;20328;-72
2022/01/28 04:22:25;;;;;;;18.90;2.40;;;;;;;-145.18;100.00;46656.50;4948452;29;20039;-73
2022/01/28 04:24:50;;;;;;;16.80;1.30;;;;;;;-145.18;100.00;46654.53;4948471;29;20500;-72
2022/01/28 04:27:15;;;;;;;20.27;2.77;;;;;;;-145.18;100.00;46654.53;4948256;29;20328;-73
2022/01/28 04:29:41;;;;;;;11.33;1.50;;;;;;;-145.18;100.00;46660.41;4948079;29;20051;-72
2022/01/28 04:32:07;;;;;;;13.87;1.80;;;;;;;-145.18;100.00;46656.50;4948066;29;20059;-73
2022/01/28 04:34:33;;;;;;;29.43;1.93;;;;;;;-145.18;100.00;46658.44;4947327;29;20027;-72
2022/01/28 04:44:29;;;;;;;18.50;2.20;;;;;;;-145.18;100.00;46660.41;4948574;29;20474;-72
2022/01/28 04:47:03;;;;;;;14.47;2.30;;;;;;;-145.18;100.00;46660.41;4949050;28;20496;-73
2022/01/28 04:55:21;;;;;;;9.63;1.73;;;;;;;-145.18;100.00;46631.09;4937769;29;20296;-72
2022/01/28 05:26:53;;;;;;;9.13;0.90;;;;;;;-145.18;100.00;46662.34;4951427;29;20308;-72
2022/01/28 05:29:18;;;;;;;12.53;1.90;;;;;;;-145.18;100.00;46644.78;4951373;29;20360;-72
2022/01/28 05:31:44;;;;;;;17.17;3.20;;;;;;;-145.18;100.00;46650.63;4951273;29;20691;-73
2022/01/28 05:34:09;;;;;;;12.03;1.37;;;;;;;-145.18;100.00;46650.63;4951030;29;20046;-73
2022/01/28 05:36:35;;;;;;;18.43;1.90;;;;;;;-145.18;100.00;46648.69;4951376;29;20557;-72
2022/01/28 05:39:00;;;;;;;19.00;1.67;;;;;;;-145.18;100.00;46650.63;4950647;29;20471;-72
2022/01/28 05:41:25;;;;;;;12.20;1.33;;;;;;;-145.18;100.00;46640.88;4934564;29;20035;-73
2022/01/28 05:43:51;;;;;;;24.73;3.40;;;;;;;-145.18;100.00;46648.69;4949476;29;20134;-73
2022/01/28 05:46:18;;;;;;;17.43;1.87;;;;;;;-145.18;100.00;46644.78;4951114;29;20062;-72
2022/01/28 05:48:43;;;;;;;21.00;2.33;;;;;;;-145.18;100.00;46638.91;4950377;29;20046;-73
2022/01/28 05:51:09;;;;;;;11.93;1.40;;;;;;;-145.18;100.00;46640.88;4951334;29;20301;-73
2022/01/28 05:53:34;;;;;;;21.60;2.33;;;;;;;-145.18;100.00;46631.09;4950276;29;20051;-72
2022/01/28 05:56:00;;;;;;;17.97;2.13;;;;;;;-145.18;100.00;46629.13;4951333;29;20050;-72
2022/01/28 05:58:25;;;;;;;15.70;1.90;;;;;;;-145.18;100.00;46660.41;4932908;29;20035;-73
2022/01/28 06:00:50;;;;;;;11.87;2.13;;;;;;;-145.18;100.00;46636.94;4950551;29;20109;-72
2022/01/28 06:03:16;;;;;;;21.23;2.30;;;;;;;-145.18;100.00;46640.88;4950109;29;20047;-72
2022/01/28 06:05:42;;;;;;;17.93;2.00;;;;;;;-145.18;100.00;46633.06;4950585;29;20047;-73
2022/01/28 06:08:07;;;;;;;14.10;1.70;;;;;;;-145.18;100.00;46640.88;4950384;29;20135;-72
2022/01/28 06:10:32;;;;;;;11.77;1.30;;;;;;;-145.18;100.00;46642.81;4951149;29;20130;-73
2022/01/28 06:12:58;;;;;;;10.43;1.40;;;;;;;-145.18;100.00;46636.94;4954599;28;20069;-73
2022/01/28 06:15:24;;;;;;;14.90;2.57;;;;;;;-145.18;100.00;46638.91;4950582;29;20043;-74
2022/01/28 06:17:49;;;;;;;22.43;2.33;;;;;;;-145.18;100.00;46636.94;4950058;29;20110;-73
2022/01/28 06:20:19;;;;;;;23.40;2.20;;;;;;;-145.18;100.00;46642.81;4950279;29;20294;-72
2022/01/28 06:22:45;;;;;;;16.53;1.60;;;;;;;-145.18;100.00;46636.94;4949767;29;20047;-72
2022/01/28 06:25:13;;;;;;;14.77;1.50;;;;;;;-145.18;100.00;46638.91;4949360;29;20277;-72
2022/01/28 06:27:39;;;;;;;16.47;2.40;;;;;;;-145.18;100.00;46636.94;4950672;29;20270;-73
2022/01/28 06:30:06;;;;;;;13.43;1.33;;;;;;;-145.18;100.00;46640.88;4949865;29;20352;-72
2022/01/28 06:32:32;;;;;;;28.03;2.53;;;;;;;-145.18;100.00;46636.94;4949285;29;20796;-72
2022/01/28 06:35:00;;;;;;;13.23;1.77;;;;;;;-145.18;100.00;46633.06;4949998;29;20278;-73
2022/01/28 06:37:26;;;;;;;21.33;2.73;;;;;;;-145.18;100.00;46642.81;4949325;29;20285;-72
2022/01/28 06:39:52;;;;;;;20.57;1.83;;;;;;;-145.18;100.00;46636.94;4949959;29;20292;-72
2022/01/28 06:42:17;;;;;;;10.87;1.77;;;;;;;-145.18;100.00;46636.94;4957870;28;20281;-73
2022/01/28 06:44:42;;;;;;;13.07;1.77;;;;;;;-145.18;100.00;46635.00;4969677;28;20030;-73
2022/01/28 06:47:12;;;;;;;12.80;1.53;;;;;;;-145.18;100.00;46638.91;4969121;28;20109;-73
2022/01/28 06:49:38;;;;;;;19.67;3.00;;;;;;;-145.18;100.00;46640.88;4968982;28;20561;-72
2022/01/28 06:52:05;;;;;;;14.40;3.60;;;;;;;-145.18;100.00;46644.78;4951734;28;20276;-73
2022/01/28 06:54:30;;;;;;;21.87;2.77;;;;;;;-145.18;100.00;46650.63;4968919;28;20292;-73
2022/01/28 06:56:55;;;;;;;11.17;2.13;;;;;;;-145.18;100.00;46638.91;4968642;28;20280;-73
2022/01/28 06:59:21;;;;;;;13.03;2.07;;;;;;;-145.18;100.00;46633.06;4968292;28;20043;-73
2022/01/28 07:01:46;;;;;;;11.40;1.53;;;;;;;-145.18;100.00;46635.00;4969422;28;20042;-73
2022/01/28 07:04:11;;;;;;;14.43;1.70;;;;;;;-145.18;100.00;46660.41;4968613;28;20055;-72
2022/01/28 07:06:37;;;;;;;15.93;1.50;;;;;;;-145.18;100.00;46635.00;4969018;28;20404;-73
2022/01/28 07:09:02;;;;;;;13.53;1.90;;;;;;;-145.18;100.00;46660.41;4968099;28;20039;-73
2022/01/28 07:11:27;;;;;;;15.60;2.97;;;;;;;-145.18;100.00;46660.41;4968619;28;20507;-72
2022/01/28 07:13:53;;;;;;;4.47;1.20;;;;;;;-145.18;100.00;46660.41;4968241;28;20126;-73
2022/01/28 07:16:18;;;;;;;15.00;2.87;;;;;;;-145.18;100.00;46635.00;4969384;28;20174;-73
2022/01/28 07:18:44;;;;;;;16.40;2.13;;;;;;;-145.18;100.00;46635.00;4968213;28;20039;-72
2022/01/28 07:21:09;;;;;;;15.70;1.57;;;;;;;-145.18;100.00;46642.81;4968902;28;20039;-73
2022/01/28 07:23:34;;;;;;;10.20;2.20;;;;;;;-145.18;100.00;46640.88;4968169;28;20169;-73
2022/01/28 07:26:00;;;;;;;20.77;2.40;;;;;;;-145.18;100.00;46635.00;4968490;28;20053;-73
2022/01/28 07:28:26;;;;;;;22.03;2.43;;;;;;;-145.18;100.00;46644.78;4968094;28;20073;-72
2022/01/28 07:30:52;;;;;;;22.17;4.00;;;;;;;-145.18;100.00;46638.91;4969181;28;20460;-73
2022/01/28 07:33:17;;;;;;;15.53;3.53;;;;;;;-145.18;100.00;46631.09;4950870;28;20039;-73
2022/01/28 07:35:43;;;;;;;12.73;2.07;;;;;;;-145.18;100.00;46633.06;4968360;28;20535;-73
2022/01/28 07:38:09;;;;;;;12.90;1.67;;;;;;;-145.18;100.00;46638.91;4967752;28;20038;-73
2022/01/28 07:40:34;;;;;;;12.23;1.70;;;;;;;-145.18;100.00;46631.09;4968488;28;20094;-72
2022/01/28 07:43:00;;;;;;;25.63;3.00;;;;;;;-145.18;100.00;46633.06;4967926;28;20456;-72
2022/01/28 07:45:25;;;;;;;14.23;3.30;;;;;;;-145.18;100.00;46636.94;4969226;28;20443;-73
2022/01/28 07:47:51;;;;;;;16.53;2.73;;;;;;;-145.18;100.00;46633.06;4967814;28;20039;-73
2022/01/28 07:50:17;;;;;;;16.67;2.23;;;;;;;-145.18;100.00;46660.41;4962262;28;20055;-73
2022/01/28 07:52:43;;;;;;;21.67;2.57;;;;;;;-145.18;100.00;46660.41;4950212;28;20043;-73
2022/01/28 07:55:11;;;;;;;22.47;2.57;;;;;;;-145.18;100.00;46656.50;4949087;29;20039;-73
2022/01/28 07:57:36;;;;;;;19.45;2.55;;;;;;;-145.18;100.00;46658.44;4948492;29;20504;-72
2022/01/28 08:00:03;;;;;;;12.13;3.27;;;;;;;-145.18;100.00;46658.44;4949159;29;20035;-72
2022/01/28 08:02:29;;;;;;;12.27;1.83;;;;;;;-145.18;100.00;46660.41;4948947;29;20035;-73
2022/01/28 08:04:54;;;;;;;15.47;1.63;;;;;;;-145.18;100.00;46654.53;4948733;29;20288;-73
2022/01/28 08:07:21;;;;;;;14.37;2.13;;;;;;;-145.18;100.00;46623.28;4949040;29;20039;-73
2022/01/28 08:09:47;;;;;;;13.05;2.00;;;;;;;-145.18;100.00;46617.41;4931501;29;20431;-73
2022/01/28 08:12:12;;;;;;;11.17;1.70;;;;;;;-145.18;100.00;46652.59;4948491;29;20031;-72
2022/01/28 08:14:38;;;;;;;14.80;1.40;;;;;;;-145.18;100.00;46619.38;4946988;29;20051;-72
2022/01/28 08:17:03;;;;;;;12.87;1.90;;;;;;;-145.18;100.00;46625.22;4948788;28;20042;-72
2022/01/28 08:19:29;;;;;;;16.67;1.87;;;;;;;-145.18;100.00;46621.31;4947616;28;20051;-73
2022/01/28 08:21:54;;;;;;;18.17;2.00;;;;;;;-145.18;100.00;46613.50;4949653;28;20102;-73
2022/01/28 08:24:20;;;;;;;19.37;2.10;;;;;;;-145.18;100.00;46603.75;4951858;29;20483;-72
2022/01/28 08:26:45;;;;;;;10.63;1.73;;;;;;;-145.18;100.00;46613.50;4951916;29;20047;-73
2022/01/28 08:29:10;;;;;;;14.37;1.97;;;;;;;-145.18;100.00;46609.59;4951828;29;20039;-72
2022/01/28 08:31:37;;;;;;;12.13;2.20;;;;;;;-145.18;100.00;46609.59;4952899;29;20141;-73
2022/01/28 08:34:03;;;;;;;17.60;2.50;;;;;;;-145.18;100.00;46593.97;4958300;28;20514;-73
2022/01/28 08:36:28;;;;;;;17.63;2.50;;;;;;;-145.18;100.00;46599.84;4950197;29;20345;-73
2022/01/28 08:38:55;;;;;;;20.03;2.43;;;;;;;-145.18;100.00;46601.78;4950485;29;20369;-73
2022/01/28 08:41:24;;;;;;;11.13;2.20;;;;;;;-145.18;100.00;46597.88;4951964;29;20051;-73
2022/01/28 08:43:51;;;;;;;26.60;3.00;;;;;;;-145.18;100.00;46593.97;4933962;29;20285;-73
2022/01/28 08:46:17;;;;;;;29.50;3.37;;;;;;;-145.18;100.00;46597.88;4965457;28;20299;-72
2022/01/28 08:48:42;;;;;;;14.93;3.13;;;;;;;-145.18;100.00;46584.22;4971037;28;20753;-73
2022/01/28 08:51:08;;;;;;;18.93;3.63;;;;;;;-145.18;100.00;46593.97;4970615;28;20030;-72
2022/01/28 08:53:33;;;;;;;11.67;2.93;;;;;;;-145.18;100.00;46592.03;4949908;28;20050;-73
2022/01/28 08:55:59;;;;;;;20.97;3.60;;;;;;;-145.18;100.00;46584.22;4970728;28;20127;-73
2022/01/28 08:58:25;;;;;;;18.43;3.90;;;;;;;-145.18;100.00;46586.16;4970421;28;20542;-73
2022/01/28 09:00:53;;;;;;;23.23;4.33;;;;;;;-145.18;100.00;46578.34;4970615;28;20047;-72
2022/01/28 09:03:20;;;;;;;30.97;4.63;;;;;;;-145.18;100.00;46582.25;4969367;28;20051;-72
2022/01/28 09:05:45;;;;;;;19.23;3.20;;;;;;;-145.18;100.00;46580.31;4971240;28;20370;-73
2022/01/28 09:08:11;;;;;;;20.83;5.20;;;;;;;-145.18;100.00;46582.25;4970149;28;20285;-73
2022/01/28 09:10:42;;;;;;;18.10;4.00;;;;;;;-145.18;100.00;46584.22;4970934;28;20482;-73
2022/01/28 09:15:39;;;;;;;17.57;3.67;;;;;;;-145.18;100.00;46574.44;4970426;28;20311;-72
2022/01/28 09:18:05;;;;;;;29.67;4.23;;;;;;;-145.18;100.00;46582.25;4969878;28;20555;-73
2022/01/28 09:20:33;;;;;;;18.00;3.37;;;;;;;-145.18;100.00;46580.31;4970502;28;20280;-72
2022/01/28 09:23:00;;;;;;;24.70;3.37;;;;;;;-145.18;100.00;46582.25;4969391;28;20329;-72
2022/01/28 09:25:26;;;;;;;28.70;4.53;;;;;;;-145.18;100.00;46584.22;4970207;28;20277;-73
2022/01/28 09:27:51;;;;;;;23.97;4.30;;;;;;;-145.18;100.00;46590.06;4969604;28;20336;-73
2022/01/28 09:30:18;;;;;;;23.97;4.73;;;;;;;-145.18;100.00;46588.13;4969644;28;20742;-73
2022/01/28 09:32:43;;;;;;;26.93;5.80;;;;;;;-145.18;100.00;46595.94;4969464;28;20177;-73
2022/01/28 09:35:09;;;;;;;28.43;6.63;;;;;;;-145.18;100.00;46595.94;4935144;28;20269;-73
2022/01/28 09:37:34;;;;;;;22.77;6.23;;;;;;;-145.18;100.00;46599.84;4932504;29;20043;-73
2022/01/28 09:40:01;;;;;;;20.00;4.93;;;;;;;-145.18;100.00;46607.66;4936276;28;20416;-72
2022/01/28 09:42:30;;;;;;;26.40;6.43;;;;;;;-145.18;100.00;46592.03;4969717;28;20035;-72
2022/01/28 09:44:57;;;;;;;27.87;7.23;;;;;;;-145.18;100.00;46613.50;4970207;28;20289;-73
2022/01/28 09:47:22;;;;;;;25.67;5.10;;;;;;;-145.18;100.00;46613.50;4970155;28;20268;-73
2022/01/28 09:49:48;;;;;;;20.07;4.70;;;;;;;-145.18;100.00;46617.41;4969396;28;20331;-73
2022/01/28 09:52:13;;;;;;;25.23;4.33;;;;;;;-145.18;100.00;46615.47;4969560;28;20042;-73
2022/01/28 09:54:39;;;;;;;26.33;3.63;;;;;;;-145.18;100.00;46623.28;4969566;28;20443;-73
2022/01/28 09:57:08;;;;;;;19.60;3.27;;;;;;;-145.18;100.00;46631.09;4969570;28;20053;-73
2022/01/28 09:59:33;;;;;;;20.03;3.37;;;;;;;-145.18;100.00;46635.00;4969188;28;20375;-72
2022/01/28 10:01:59;;;;;;;17.03;3.00;;;;;;;-145.18;100.00;46648.69;4954643;28;20840;-73
2022/01/28 10:04:24;;;;;;;19.20;3.90;;;;;;;-145.18;100.00;46646.72;4950090;29;20050;-73
2022/01/28 10:06:50;;;;;;;20.67;3.07;;;;;;;-145.18;100.00;46648.69;4950195;29;20043;-73
2022/01/28 10:09:18;;;;;;;18.53;2.73;;;;;;;-145.18;100.00;46668.22;4949983;29;20062;-73
2022/01/28 10:11:48;;;;;;;30.67;3.53;;;;;;;-145.18;100.00;46660.41;4950016;29;20047;-73
2022/01/28 10:14:20;;;;;;;21.10;3.43;;;;;;;-145.18;100.00;46660.41;4949611;29;20282;-72
2022/01/28 10:16:58;;;;;;;13.90;4.33;;;;;;;-145.18;100.00;46677.97;4949738;29;20320;-73
2022/01/28 10:19:26;;;;;;;35.83;12.57;;;;;;;-145.18;100.00;46666.25;4949623;29;20277;-73
2022/01/28 10:21:54;;;;;;;27.20;4.90;;;;;;;-145.18;100.00;46674.06;4950001;29;20304;-73
2022/01/28 10:24:27;;;;;;;24.13;4.17;;;;;;;-145.18;100.00;46666.25;4949378;29;20961;-73
2022/01/28 10:27:09;;;;;;;18.03;3.90;;;;;;;-145.18;100.00;46677.97;4950139;29;20308;-73
2022/01/28 10:29:37;;;;;;;23.57;4.47;;;;;;;-145.18;100.00;46672.13;4949530;29;20757;-73
2022/01/28 10:32:06;;;;;;;23.17;4.20;;;;;;;-145.18;100.00;46709.22;4932175;29;20289;-73
2022/01/28 10:34:42;;;;;;;18.10;4.43;;;;;;;-145.18;100.00;46695.56;4949524;29;20284;-72
2022/01/28 10:37:30;;;;;;;21.80;5.30;;;;;;;-145.18;100.00;46687.75;4949564;29;20332;-73
2022/01/28 10:39:58;;;;;;;17.97;4.43;;;;;;;-145.18;100.00;46695.56;4949339;29;20269;-73
2022/01/28 10:42:50;;;;;;;21.37;5.33;;;;;;;-145.18;100.00;46691.66;4949599;29;20776;-73
2022/01/28 10:45:21;;;;;;;22.47;5.00;;;;;;;-145.18;100.00;46691.66;4948334;28;20344;-73
2022/01/28 10:47:53;;;;;;;21.43;4.13;;;;;;;-145.18;100.00;46685.78;4949372;29;20313;-73
2022/01/28 10:50:24;;;;;;;22.37;3.80;;;;;;;-145.18;100.00;46732.66;4949247;29;20277;-73
2022/01/28 10:53:08;;;;;;;15.33;3.27;;;;;;;-145.18;100.00;46734.63;4949853;29;20603;-73
2022/01/28 10:55:54;;;;;;;20.37;4.27;;;;;;;-145.18;100.00;46758.06;4949656;29;20368;-73
2022/01/28 10:58:25;;;;;;;18.73;2.97;;;;;;;-145.18;100.00;46748.28;4948681;29;20269;-73
2022/01/28 11:00:59;;;;;;;19.80;3.27;;;;;;;-145.18;100.00;46746.34;4948115;29;20500;-73
2022/01/28 11:03:27;;;;;;;22.17;3.50;;;;;;;-145.18;100.00;46761.97;4948822;29;20308;-73
2022/01/28 11:05:58;;;;;;;21.53;3.87;;;;;;;-145.18;100.00;46769.78;4948876;29;20286;-73
2022/01/28 11:08:25;;;;;;;22.70;2.67;;;;;;;-145.18;100.00;46777.59;4949032;29;20265;-73
2022/01/28 11:10:52;;;;;;;21.47;3.33;;;;;;;-145.18;100.00;46814.72;4949175;29;20266;-73
2022/01/28 11:13:17;;;;;;;12.30;2.93;;;;;;;-145.18;100.00;46803.00;4948863;29;20261;-73
2022/01/28 11:15:43;;;;;;;17.80;3.33;;;;;;;-145.18;100.00;46818.63;4956564;28;20281;-73
2022/01/28 11:18:10;;;;;;;22.00;3.07;;;;;;;-145.18;100.00;46859.63;4964965;28;20407;-73
2022/01/28 11:20:44;;;;;;;16.03;2.83;;;;;;;-145.18;100.00;46861.59;4965189;28;20047;-73
2022/01/28 11:23:30;;;;;;;21.20;3.70;;;;;;;-145.18;100.00;46892.84;4968159;28;20793;-73
2022/01/28 11:26:26;;;;;;;19.00;3.00;;;;;;;-145.18;100.00;46949.50;4967898;28;20287;-73
2022/01/28 11:28:55;;;;;;;15.37;3.07;;;;;;;-145.18;100.00;47006.16;4967667;28;20268;-73
2022/01/28 11:31:51;;;;;;;14.57;2.30;;;;;;;-145.18;100.00;47180.03;4968407;28;20324;-73
2022/01/28 11:34:23;;;;;;;24.50;8.50;;;;;;;-145.18;100.00;47418.38;4952060;28;20269;-73
2022/01/28 11:36:50;;;;;;;16.40;2.40;;;;;;;-145.18;100.00;47484.78;4968051;28;20265;-73
2022/01/28 11:39:46;;;;;;;13.93;2.10;;;;;;;-145.18;100.00;47490.66;4967781;28;20281;-73
2022/01/28 11:42:11;;;;;;;19.05;2.30;;;;;;;-145.18;100.00;47480.88;4967385;28;20753;-73
2022/01/28 11:44:44;;;;;;;16.90;2.10;;;;;;;-145.18;100.00;47486.75;4967341;28;20049;-73
2022/01/28 11:47:19;;;;;;;18.17;2.43;;;;;;;-145.18;100.00;47471.13;4968220;28;20035;-73
2022/01/28 11:50:10;;;;;;;13.30;1.90;;;;;;;-145.18;100.00;47437.91;4951401;28;20301;-73
2022/01/28 11:52:53;;;;;;;15.10;1.80;;;;;;;-145.18;100.00;47476.97;4949425;29;20268;-73
2022/01/28 11:55:25;;;;;;;17.10;2.17;;;;;;;-145.18;100.00;47547.31;4949159;28;20368;-73
2022/01/28 11:57:58;;;;;;;13.97;2.30;;;;;;;-145.18;100.00;47494.56;4952759;29;20277;-73
2022/01/28 12:00:28;;;;;;;23.07;1.90;;;;;;;-145.18;100.00;47478.94;4952504;29;20277;-73
2022/01/28 12:02:54;;;;;;;11.60;2.67;;;;;;;-145.18;100.00;47451.56;4958600;28;20357;-73
2022/01/28 12:05:28;;;;;;;18.30;3.50;;;;;;;-145.18;100.00;47463.31;4954659;28;20286;-73
2022/01/28 12:07:59;;;;;;;26.87;4.73;;;;;;;-145.18;100.00;47467.22;4952473;29;20282;-73
2022/01/28 12:10:26;;;;;;;19.70;3.43;;;;;;;-145.18;100.00;47492.59;4952064;29;20358;-73
2022/01/28 12:13:03;;;;;;;20.73;4.33;;;;;;;-145.18;100.00;47426.19;4953525;28;20277;-73
2022/01/28 12:15:32;;;;;;;17.60;3.13;;;;;;;-145.18;100.00;47463.31;4933390;29;20699;-73
2022/01/28 12:18:10;;;;;;;17.43;4.23;;;;;;;-145.18;100.00;47461.34;4951354;29;20297;-73
2022/01/28 12:20:47;;;;;;;19.83;2.70;;;;;;;-145.18;100.00;47439.84;4950986;29;20719;-73
2022/01/28 12:23:13;;;;;;;18.53;3.87;;;;;;;-145.18;100.00;47424.22;4952650;29;20642;-73
2022/01/28 12:25:41;;;;;;;22.10;3.00;;;;;;;-145.18;100.00;47402.72;4951732;29;20316;-73
2022/01/28 12:28:21;;;;;;;18.17;3.30;;;;;;;-145.18;100.00;47381.25;4951983;29;20043;-73
2022/01/28 12:30:51;;;;;;;10.87;1.80;;;;;;;-145.18;100.00;47357.78;4952190;29;20682;-74
2022/01/28 12:33:24;;;;;;;13.07;2.23;;;;;;;-145.18;100.00;47396.88;4952126;29;20274;-73
2022/01/28 12:35:52;;;;;;;21.37;2.63;;;;;;;-145.18;100.00;47434.00;4951403;29;20314;-73
2022/01/28 12:38:23;;;;;;;11.77;2.93;;;;;;;-145.18;100.00;47435.94;4951645;29;20273;-73
2022/01/28 12:40:52;;;;;;;17.13;2.43;;;;;;;-145.18;100.00;47412.50;4951689;29;20304;-73